Gillam Airport
CYGX : now visible

Airfield :











YOU CAN JOIN US ON...

 
LOGIN :

Register | Disclaimer

   EN    FR    IT 

 









Legend :    VFR   Marginal VFR   IFR   Intensive IFR   Very Intensive IFR
Visi :
Ceiling :
>= 8 km
>= 3000ft
5 to 8 km
1000 to 3000 ft
1500m to 5 km
500 to 1000 ft
800 to 1500m
200 to 500 ft
< 800m
< 200 ft
Symbols :   Thunderstorms  Fog  Heavy snow  Heavy precipitations  Wind > 20 kt






- Airport Elevation : 476 ft
- IATA code : YGX


CYGX - Gillam

CURRENT METAR :
  • 042200Z 19009G19KT 150V220 15SM SCT038 28/12 A2992 RMK CU4 SLP136 DENSITY ALT 2100FT

EXPIRED METARs :
  • 042100Z 19011G19KT 140V250 15SM BKN038 28/12 A2994 RMK CU5 SLP142 DENSITY ALT 2100FT
  • 042000Z 20010KT 160V250 15SM BKN039 28/13 A2995 RMK CU5 SLP148 DENSITY ALT 2000FT

TAF TAF CYGX
Valid from the 04 at 19:00 until the 05 at 07:00 UTC


041838Z 0419/0507 20008KT P6SM SCT040
TEMPO 0419/0422 BKN040 RMK NXT FCST BY 050100Z
CZWG FIR / North America



MET'MAP, your aeronautical weather chart ! - Copyright ORBIFLY December 2007 - Disclaimer

ORBIFLY MET'MAP TEAM :

Programming & Development : Alexandra Zaïnal
Concept & original design : Baudouin d'Aumeries
Assistance for programming : Marc-Olivier Méhu
Technical & hardware support : Manuel Goepfert

Contact : metmap@orbifly.com




SOURCES & CREDITS :

   NOAA       Earth
Advisory